Home > Products > Valid Products > TAF

000
FTUS41 KCLE 040558 CCA
TAFTOL
TAF COR
KTOL 040558Z 0406/0506 VRB05KT 6SM BR VCSH SCT010 BKN070
      TEMPO 0406/0407 4SM -TSRA BR SCT010 BKN035CB
     FM040700 VRB04KT 5SM BR SCT008 BKN035
      TEMPO 0409/0413 2SM BR BKN005
     FM041400 22005KT P6SM SCT025 BKN250
     FM041700 23006KT P6SM VCTS BKN045CB
     FM042300 08003KT P6SM SCT045 BKN200=



000
FTUS41 KCLE 040558 CCA
TAFTOL
TAF COR
KTOL 040558Z 0406/0506 VRB05KT 6SM BR VCSH SCT010 BKN070
      TEMPO 0406/0407 4SM -TSRA BR SCT010 BKN035CB
     FM040700 VRB04KT 5SM BR SCT008 BKN035
      TEMPO 0409/0413 2SM BR BKN005
     FM041400 22005KT P6SM SCT025 BKN250
     FM041700 23006KT P6SM VCTS BKN045CB
     FM042300 08003KT P6SM SCT045 BKN200=



000
FTUS41 KCLE 040540
TAFTOL
TAF
KTOL 040540Z 0406/0506 VRB05KT 6SM BR VCSH BKN005 OVC050
      TEMPO 0406/0407 4SM -TSRA BR SCT005 BKN035CB
     FM040700 VRB04KT 5SM BR BKN005
      TEMPO 0409/0413 2SM BR BKN003
     FM041400 22005KT P6SM SCT025 BKN250
     FM041700 23006KT P6SM VCTS BKN045CB
     FM042300 08003KT P6SM SCT045 BKN200=



000
FTUS41 KCLE 040540
TAFFDY
TAF
KFDY 040540Z 0406/0506 14008KT P6SM SCT045 BKN080
      TEMPO 0406/0407 VRB05KT 4SM -SHRA BR BKN050
     FM040900 16004KT 4SM BR SCT003 BKN250
     FM041300 22005KT P6SM SCT040
     FM041800 24007KT P6SM VCTS BKN045CB
     FM050000 14004KT P6SM SCT050 BKN250=



000
FTUS41 KCLE 040540
TAFYNG
TAF
KYNG 040540Z 0406/0506 VRB04KT 3SM BR SCT004 BKN015
     FM040700 VRB04KT 5SM -SHRA BR BKN015 OVC070
     FM041000 VRB04KT 4SM BR SCT005 BKN050
      TEMPO 0410/0413 2SM BR BKN003
     FM041400 18006KT P6SM SCT025
     FM041800 18008KT P6SM VCTS BKN045CB
     FM050000 15003KT P6SM SCT050 BKN250=



000
FTUS41 KCLE 040540
TAFERI
TAF
KERI 040540Z 0406/0506 16004KT 4SM BR BKN120
      TEMPO 0410/0413 2SM -SHRA BR BKN040
     FM041500 06006KT P6SM SCT120 BKN250
     FM041800 04010KT P6SM VCSH BKN040
     FM050100 12005KT P6SM SCT040 BKN200=



000
FTUS41 KCLE 040540
TAFERI
TAF
KERI 040540Z 0406/0506 16004KT 4SM BR BKN120
      TEMPO 0410/0413 2SM -SHRA BR BKN040
     FM041500 06006KT P6SM SCT120 BKN250
     FM041800 04010KT P6SM VCSH BKN040
     FM050100 12005KT P6SM SCT040 BKN200=



000
FTUS41 KCLE 040540
TAFCLE
TAF
KCLE 040540Z 0406/0512 16005KT P6SM -SHRA SCT045 BKN080
      TEMPO 0406/0409 VRB05KT 4SM TSRA BR SCT012 BKN035CB
     FM041000 18003KT 5SM BR SCT050 BKN120
      TEMPO 0410/0413 3SM BR BKN010
     FM041400 18006KT P6SM SCT250
     FM042000 04006KT P6SM VCTS BKN045CB
     FM050100 15005KT P6SM BKN200=



000
FTUS41 KCLE 040540
TAFCAK
TAF
KCAK 040540Z 0406/0506 VRB06KT 6SM -SHRA BR BKN050 BKN150
      TEMPO 0406/0409 4SM -TSRA BR BKN035CB OVC050
     FM041000 VRB04KT 4SM BR BKN040
      TEMPO 0410/0413 3SM BR BKN010
     FM041400 18006KT P6SM SCT025
     FM050000 15003KT P6SM SCT050 BKN250=



000
FTUS41 KCLE 040540
TAFMFD
TAF
KMFD 040540Z 0406/0506 12006KT 6SM -SHRA BR BKN040 OVC080
      TEMPO 0406/0408 VRB05KT 4SM TSRA BR SCT006 BKN035CB
     FM040900 17004KT 4SM BR SCT006 BKN060
      TEMPO 0410/0413 2SM BR BKN006
     FM041300 19006KT P6SM SCT250
     FM041900 19006KT P6SM VCTS BKN045CB
     FM050000 15003KT P6SM SCT050 BKN250=



000
FTUS41 KCLE 040504 AAD
TAFMFD
TAF AMD
KMFD 040504Z 0405/0424 05005KT 6SM -SHRA BR BKN040 OVC080
      TEMPO 0405/0407 4SM TSRA BR SCT006 BKN028CB
     FM041000 18003KT 4SM BR SCT250
      TEMPO 0410/0413 2SM BR
     FM041300 20006KT P6SM SCT250
     FM041800 24006KT P6SM VCTS BKN045CB=



000
FTUS41 KCLE 040504 AAD
TAFMFD
TAF AMD
KMFD 040504Z 0405/0424 05005KT 6SM -SHRA BR BKN040 OVC080
      TEMPO 0405/0407 4SM TSRA BR SCT006 BKN028CB
     FM041000 18003KT 4SM BR SCT250
      TEMPO 0410/0413 2SM BR
     FM041300 20006KT P6SM SCT250
     FM041800 24006KT P6SM VCTS BKN045CB=



000
FTUS41 KCLE 040456 AAA
TAFYNG
TAF AMD
KYNG 040456Z 0405/0424 VRB04KT 3SM BR SCT045 OVC120
     FM040600 VRB04KT 5SM -SHRA BR BKN250
     FM041000 VRB04KT 4SM BR SCT010 BKN050
      TEMPO 0410/0413 2SM BR BKN003
     FM041400 18006KT P6SM SCT025
     FM041800 18008KT P6SM VCTS BKN045CB=



000
FTUS41 KCLE 040456 AAA
TAFYNG
TAF AMD
KYNG 040456Z 0405/0424 VRB04KT 3SM BR SCT045 OVC120
     FM040600 VRB04KT 5SM -SHRA BR BKN250
     FM041000 VRB04KT 4SM BR SCT010 BKN050
      TEMPO 0410/0413 2SM BR BKN003
     FM041400 18006KT P6SM SCT025
     FM041800 18008KT P6SM VCTS BKN045CB=



000
FTUS41 KCLE 040434 AAB
TAFCAK
TAF AMD
KCAK 040434Z 0405/0424 31006KT 6SM -SHRA BR SCT025 BKN050 BKN250
      TEMPO 0405/0409 4SM -TSRA BR BKN035CB OVC050
     FM041000 VRB04KT 4SM BR BKN040
     FM041400 18006KT P6SM SCT025
     FM041800 18008KT P6SM VCTS BKN045CB=



000
FTUS41 KCLE 040429 AAB
TAFTOL
TAF AMD
KTOL 040429Z 0404/0424 VRB05KT P6SM VCTS SCT050CB OVC250
      TEMPO 0404/0406 4SM TSRA BR BKN040CB
     FM040600 13004KT 6SM BR BKN050
     FM040800 VRB02KT 4SM BR SCT005 BKN250
      TEMPO 0409/0413 2SM BR BKN005
     FM041300 22005KT P6SM SCT250
     FM041800 23007KT P6SM VCTS BKN045CB=



000
FTUS41 KCLE 040429 AAB
TAFTOL
TAF AMD
KTOL 040429Z 0404/0424 VRB05KT P6SM VCTS SCT050CB OVC250
      TEMPO 0404/0406 4SM TSRA BR BKN040CB
     FM040600 13004KT 6SM BR BKN050
     FM040800 VRB02KT 4SM BR SCT005 BKN250
      TEMPO 0409/0413 2SM BR BKN005
     FM041300 22005KT P6SM SCT250
     FM041800 23007KT P6SM VCTS BKN045CB=



000
FTUS41 KCLE 040413 AAC
TAFMFD
TAF AMD
KMFD 040413Z 0404/0424 05005KT 4SM -SHRA BR BKN040 OVC080
      TEMPO 0404/0405 2SM TSRA BR SCT006 BKN028CB
     FM041000 18003KT 4SM BR SCT250
      TEMPO 0410/0413 2SM BR
     FM041300 20006KT P6SM SCT250
     FM041800 24006KT P6SM VCTS BKN045CB=



000
FTUS41 KCLE 040301 AAA
TAFCAK
TAF AMD
KCAK 040301Z 0403/0424 13003KT 5SM BR BKN250
      TEMPO 0409/0413 2SM BR BKN003
     FM041400 18006KT P6SM SCT025
     FM041800 18008KT P6SM VCTS BKN045CB=



000
FTUS41 KCLE 040301 AAA
TAFCAK
TAF AMD
KCAK 040301Z 0403/0424 13003KT 5SM BR BKN250
      TEMPO 0409/0413 2SM BR BKN003
     FM041400 18006KT P6SM SCT025
     FM041800 18008KT P6SM VCTS BKN045CB=



000
FTUS41 KCLE 040300 AAA
TAFERI
TAF AMD
KERI 040300Z 0403/0424 16004KT 5SM BR BKN120
      TEMPO 0410/0413 2SM BR
     FM041500 09006KT P6SM SCT120 BKN250
     FM041800 04010KT P6SM SCT250=



000
FTUS41 KCLE 040300 AAA
TAFERI
TAF AMD
KERI 040300Z 0403/0424 16004KT 5SM BR BKN120
      TEMPO 0410/0413 2SM BR
     FM041500 09006KT P6SM SCT120 BKN250
     FM041800 04010KT P6SM SCT250=



000
FTUS41 KCLE 040232 CCC
TAFCLE
TAF COR
KCLE 040232Z 0403/0506 28012KT P6SM TS SCT035CB OVC100
      TEMPO 0403/0406 28012G25KT 3SM TSRA BR OVC015CB
     FM040600 18003KT P6SM BKN250
      TEMPO 0409/0413 5SM BR
     FM041400 18006KT P6SM SCT250
     FM041800 18008KT P6SM VCTS BKN045CB
     FM042000 04006KT P6SM VCTS BKN045CB
     FM050100 VRB03KT P6SM BKN120=



000
FTUS41 KCLE 040231 AAB
TAFCLE
TAF AMD
KCLE 040231Z 0403/0506 28012KT P6SM TS SCT035CB OVC100
      TEMPO 0403/0406 28012G25KT 3SM TSRA BR OVC035CB
     FM040600 18003KT P6SM BKN250
      TEMPO 0409/0413 5SM BR
     FM041400 18006KT P6SM SCT250
     FM041800 18008KT P6SM VCTS BKN045CB
     FM042000 04006KT P6SM VCTS BKN045CB
     FM050100 VRB03KT P6SM BKN120=



000
FTUS41 KCLE 040230 AAA
TAFFDY
TAF AMD
KFDY 040230Z 0403/0424 24007KT P6SM SCT045 BKN250
      TEMPO 0403/0405 5SM -TSRA BR OVC045CB
     FM040600 12004KT 6SM BR SCT120
      TEMPO 0406/0409 4SM BR
     FM040900 VRB02KT 4SM BR SCT003 BKN250
     FM041300 23005KT P6SM SCT250
     FM041800 24007KT P6SM VCTS BKN045CB=



000
FTUS41 KCLE 040230 AAA
TAFFDY
TAF AMD
KFDY 040230Z 0403/0424 24007KT P6SM SCT045 BKN250
      TEMPO 0403/0405 5SM -TSRA BR OVC045CB
     FM040600 12004KT 6SM BR SCT120
      TEMPO 0406/0409 4SM BR
     FM040900 VRB02KT 4SM BR SCT003 BKN250
     FM041300 23005KT P6SM SCT250
     FM041800 24007KT P6SM VCTS BKN045CB=



000
FTUS41 KCLE 040228 AAA
TAFTOL
TAF AMD
KTOL 040228Z 0402/0424 23006KT P6SM VCTS SCT050CB OVC250
      TEMPO 0402/0404 5SM TSRA BR BKN050CB
     FM040600 12004KT 6SM BR SCT120
      TEMPO 0406/0409 4SM BR
     FM040900 VRB02KT 4SM BR SCT003 BKN250
     FM041300 22005KT P6SM SCT250
     FM041800 23007KT P6SM VCTS BKN045CB=



000
FTUS41 KCLE 040142 CCB
TAFCLE
TAF COR
KCLE 040142Z 0402/0506 16004KT P6SM TS SCT035CB OVC100
      TEMPO 0402/0406 34012G25KT 3SM TSRA BR OVC035CB
     FM040600 18003KT P6SM BKN250
      TEMPO 0409/0413 5SM BR
     FM041400 18006KT P6SM SCT250
     FM041800 18008KT P6SM VCTS BKN045CB
     FM042000 04006KT P6SM VCTS BKN045CB
     FM050100 VRB03KT P6SM BKN120=



000
FTUS41 KCLE 040136 AAC
TAFCLE
TAF AMD
KCLE 040136Z 0402/0506 16004KT P6SM TS SCT035CB OVC100
      TEMPO 0403/0406 VRB04G25KT 3SM TSRA BR OVC035CB
     FM040600 18003KT P6SM BKN250
      TEMPO 0409/0413 5SM BR
     FM041400 18006KT P6SM SCT250
     FM041800 18008KT P6SM VCTS BKN045CB
     FM042000 04006KT P6SM VCTS BKN045CB
     FM050100 VRB03KT P6SM BKN120=



000
FTUS41 KCLE 040134 AAB
TAFMFD
TAF AMD
KMFD 040134Z 0402/0424 13005KT P6SM VCSH SCT045 OVC120
      TEMPO 0402/0404 VRB12G25KT 4SM -TSRA BR OVC045CB
     FM040500 18003KT P6SM SCT250
      TEMPO 0405/0409 4SM BR
     FM040900 18003KT 4SM BR SCT250
      TEMPO 0409/0413 2SM BR
     FM041300 20006KT P6SM SCT250
     FM041800 24006KT P6SM VCTS BKN045CB=



000
FTUS41 KCLE 040119 AAA
TAFMFD
TAF AMD
KMFD 040119Z 0401/0424 13005KT P6SM VCSH SCT120 OVC250
     FM040500 18003KT P6SM SCT250
      TEMPO 0405/0409 4SM BR
     FM040900 18003KT 4SM BR SCT250
      TEMPO 0409/0413 2SM BR
     FM041300 20006KT P6SM SCT250
     FM041800 24006KT P6SM VCTS BKN045CB=



000
FTUS41 KCLE 040011 AAA
TAFCLE
TAF AMD
KCLE 040011Z 0400/0506 15006KT P6SM VCSH SCT045 OVC250
     FM040300 16004KT P6SM SCT035 OVC080
      TEMPO 0403/0406 VRB04G25KT 3SM TSRA BR OVC035CB
     FM040600 18003KT P6SM BKN250
      TEMPO 0409/0413 5SM BR
     FM041400 18006KT P6SM SCT250
     FM041800 18008KT P6SM VCTS BKN045CB
     FM042000 04006KT P6SM VCTS BKN045CB
     FM050100 VRB03KT P6SM BKN120=



000
FTUS41 KCLE 040011 AAA
TAFCLE
TAF AMD
KCLE 040011Z 0400/0506 15006KT P6SM VCSH SCT045 OVC250
     FM040300 16004KT P6SM SCT035 OVC080
      TEMPO 0403/0406 VRB04G25KT 3SM TSRA BR OVC035CB
     FM040600 18003KT P6SM BKN250
      TEMPO 0409/0413 5SM BR
     FM041400 18006KT P6SM SCT250
     FM041800 18008KT P6SM VCTS BKN045CB
     FM042000 04006KT P6SM VCTS BKN045CB
     FM050100 VRB03KT P6SM BKN120=



000
FTUS41 KCLE 032332 CCA
TAFYNG
TAF COR
KYNG 032332Z 0400/0424 VRB04KT P6SM SCT045 OVC120
      TEMPO 0400/0402 VRB12G30KT 1SM TSRA BR BKN012CB
     FM040600 18003KT 5SM BR BKN250
      TEMPO 0409/0413 2SM BR BKN003
     FM041400 18006KT P6SM SCT025
     FM041800 18008KT P6SM VCTS BKN045CB=



000
FTUS41 KCLE 032332 CCA
TAFYNG
TAF COR
KYNG 032332Z 0400/0424 VRB04KT P6SM SCT045 OVC120
      TEMPO 0400/0402 VRB12G30KT 1SM TSRA BR BKN012CB
     FM040600 18003KT 5SM BR BKN250
      TEMPO 0409/0413 2SM BR BKN003
     FM041400 18006KT P6SM SCT025
     FM041800 18008KT P6SM VCTS BKN045CB=



000
FTUS41 KCLE 032331
TAFCAK
TAF
KCAK 032331Z 0400/0424 VRB04KT P6SM VCSH SCT045 OVC120
     FM040600 18003KT 5SM BR BKN250
      TEMPO 0409/0413 2SM BR BKN003
     FM041400 18006KT P6SM SCT025
     FM041800 18008KT P6SM VCTS BKN045CB=



000
FTUS41 KCLE 032331
TAFTOL
TAF
KTOL 032331Z 0400/0424 23006KT P6SM VCTS SCT050CB OVC250
      TEMPO 0400/0402 5SM SHRA BR BKN050
     FM040600 12004KT 6SM BR SCT120
      TEMPO 0406/0409 4SM BR
     FM040900 VRB02KT 4SM BR SCT003 BKN250
     FM041300 22005KT P6SM SCT250
     FM041800 23007KT P6SM VCTS BKN045CB=



000
FTUS41 KCLE 032331
TAFYNG
TAF
KYNG 032331Z 0400/0424 VRB04KT P6SM SCT045 OVC120
      TEMPO 0400/0402 1SM TSRA BR BKN012CB
     FM040600 18003KT 5SM BR BKN250
      TEMPO 0409/0413 2SM BR BKN003
     FM041400 18006KT P6SM SCT025
     FM041800 18008KT P6SM VCTS BKN045CB=



000
FTUS41 KCLE 032331
TAFERI
TAF
KERI 032331Z 0400/0424 28006KT P6SM SCT020 BKN120
      TEMPO 0400/0402 BKN020
     FM040200 16004KT P6SM BKN120
      TEMPO 0410/0413 5SM BR
     FM041500 09006KT P6SM SCT120 BKN250
     FM041800 04010KT P6SM SCT250=



000
FTUS41 KCLE 032331
TAFFDY
TAF
KFDY 032331Z 0400/0424 24007KT P6SM BKN250
     FM040600 12004KT 6SM BR SCT120
      TEMPO 0406/0409 4SM BR
     FM040900 VRB02KT 4SM BR SCT003 BKN250
     FM041300 23005KT P6SM SCT250
     FM041800 24007KT P6SM VCTS BKN045CB=



000
FTUS41 KCLE 032331
TAFYNG
TAF
KYNG 032331Z 0400/0424 VRB04KT P6SM SCT045 OVC120
      TEMPO 0400/0402 1SM TSRA BR BKN012CB
     FM040600 18003KT 5SM BR BKN250
      TEMPO 0409/0413 2SM BR BKN003
     FM041400 18006KT P6SM SCT025
     FM041800 18008KT P6SM VCTS BKN045CB=



000
FTUS41 KCLE 032331
TAFTOL
TAF
KTOL 032331Z 0400/0424 23006KT P6SM VCTS SCT050CB OVC250
      TEMPO 0400/0402 5SM SHRA BR BKN050
     FM040600 12004KT 6SM BR SCT120
      TEMPO 0406/0409 4SM BR
     FM040900 VRB02KT 4SM BR SCT003 BKN250
     FM041300 22005KT P6SM SCT250
     FM041800 23007KT P6SM VCTS BKN045CB=



000
FTUS41 KCLE 032331
TAFCAK
TAF
KCAK 032331Z 0400/0424 VRB04KT P6SM VCSH SCT045 OVC120
     FM040600 18003KT 5SM BR BKN250
      TEMPO 0409/0413 2SM BR BKN003
     FM041400 18006KT P6SM SCT025
     FM041800 18008KT P6SM VCTS BKN045CB=



000
FTUS41 KCLE 032331
TAFMFD
TAF
KMFD 032331Z 0400/0424 13005KT P6SM SCT120 OVC250
     FM040500 18003KT P6SM SCT250
      TEMPO 0405/0409 4SM BR
     FM040900 18003KT 4SM BR SCT250
      TEMPO 0409/0413 2SM BR
     FM041300 20006KT P6SM SCT250
     FM041800 24006KT P6SM VCTS BKN045CB=



000
FTUS41 KCLE 032331
TAFERI
TAF
KERI 032331Z 0400/0424 28006KT P6SM SCT020 BKN120
      TEMPO 0400/0402 BKN020
     FM040200 16004KT P6SM BKN120
      TEMPO 0410/0413 5SM BR
     FM041500 09006KT P6SM SCT120 BKN250
     FM041800 04010KT P6SM SCT250=



000
FTUS41 KCLE 032331
TAFCLE
TAF
KCLE 032331Z 0400/0506 15006KT P6SM VCSH SCT045 OVC250
     FM040600 18003KT P6SM BKN250
      TEMPO 0409/0413 5SM BR
     FM041400 18006KT P6SM SCT250
     FM041800 18008KT P6SM VCTS BKN045CB
     FM042000 04006KT P6SM VCTS BKN045CB
     FM050100 VRB03KT P6SM BKN120=



000
FTUS41 KCLE 032331
TAFMFD
TAF
KMFD 032331Z 0400/0424 13005KT P6SM SCT120 OVC250
     FM040500 18003KT P6SM SCT250
      TEMPO 0405/0409 4SM BR
     FM040900 18003KT 4SM BR SCT250
      TEMPO 0409/0413 2SM BR
     FM041300 20006KT P6SM SCT250
     FM041800 24006KT P6SM VCTS BKN045CB=



000
FTUS41 KCLE 032331
TAFFDY
TAF
KFDY 032331Z 0400/0424 24007KT P6SM BKN250
     FM040600 12004KT 6SM BR SCT120
      TEMPO 0406/0409 4SM BR
     FM040900 VRB02KT 4SM BR SCT003 BKN250
     FM041300 23005KT P6SM SCT250
     FM041800 24007KT P6SM VCTS BKN045CB=



000
FTUS41 KCLE 032331
TAFCLE
TAF
KCLE 032331Z 0400/0506 15006KT P6SM VCSH SCT045 OVC250
     FM040600 18003KT P6SM BKN250
      TEMPO 0409/0413 5SM BR
     FM041400 18006KT P6SM SCT250
     FM041800 18008KT P6SM VCTS BKN045CB
     FM042000 04006KT P6SM VCTS BKN045CB
     FM050100 VRB03KT P6SM BKN120=



000
FTUS41 KCLE 032254 AAD
TAFCLE
TAF AMD
KCLE 032254Z 0323/0424 14007KT P6SM VCSH SCT050 BKN120
     FM040200 VRB03KT P6SM BKN120
      TEMPO 0410/0412 4SM BR
     FM041500 18005KT P6SM SCT060
     FM041800 01008KT P6SM SCT060=



000
FTUS41 KCLE 032153 AAC
TAFCAK
TAF AMD
KCAK 032153Z 0322/0418 33005KT P6SM VCTS SCT050CB
      TEMPO 0322/0401 VRB12G35KT 3SM TSRA BKN025CB
     FM040200 VRB03KT P6SM BKN100
     FM040800 VRB03KT 4SM BR BKN100
     FM041500 18005KT P6SM SCT060=



000
FTUS41 KCLE 032153 AAC
TAFCAK
TAF AMD
KCAK 032153Z 0322/0418 33005KT P6SM VCTS SCT050CB
      TEMPO 0322/0401 VRB12G35KT 3SM TSRA BKN025CB
     FM040200 VRB03KT P6SM BKN100
     FM040800 VRB03KT 4SM BR BKN100
     FM041500 18005KT P6SM SCT060=



000
FTUS41 KCLE 032151 AAE
TAFCLE
TAF AMD
KCLE 032151Z 0322/0424 01012KT P6SM SCT050 BKN150
      TEMPO 0322/0401 VRB12G35KT 3SM TSRA BR OVC025CB
     FM040100 VRB03KT P6SM VCSH SCT050
     FM040200 VRB03KT P6SM BKN120
      TEMPO 0410/0412 4SM BR
     FM041500 18005KT P6SM SCT060
     FM041800 01008KT P6SM SCT060=



000
FTUS41 KCLE 032145 AAD
TAFCLE
TAF AMD
KCLE 032145Z 0322/0424 36008G25KT P6SM SCT050 BKN150
     FM040000 VRB03KT P6SM VCSH SCT050
     FM040200 VRB03KT P6SM BKN120
      TEMPO 0410/0412 4SM BR
     FM041500 18005KT P6SM SCT060
     FM041800 01008KT P6SM SCT060=



000
FTUS41 KCLE 032145 AAD
TAFCLE
TAF AMD
KCLE 032145Z 0322/0424 36008G25KT P6SM SCT050 BKN150
     FM040000 VRB03KT P6SM VCSH SCT050
     FM040200 VRB03KT P6SM BKN120
      TEMPO 0410/0412 4SM BR
     FM041500 18005KT P6SM SCT060
     FM041800 01008KT P6SM SCT060=



000
FTUS41 KCLE 032103 AAC
TAFCLE
TAF AMD
KCLE 032103Z 0321/0424 36008KT P6SM SCT050 BKN150
     FM040000 VRB03KT P6SM VCSH SCT050
     FM040200 VRB03KT P6SM BKN120
      TEMPO 0410/0412 4SM BR
     FM041500 18005KT P6SM SCT060
     FM041800 01008KT P6SM SCT060=



000
FTUS41 KCLE 032103 AAC
TAFCLE
TAF AMD
KCLE 032103Z 0321/0424 36008KT P6SM SCT050 BKN150
     FM040000 VRB03KT P6SM VCSH SCT050
     FM040200 VRB03KT P6SM BKN120
      TEMPO 0410/0412 4SM BR
     FM041500 18005KT P6SM SCT060
     FM041800 01008KT P6SM SCT060=



000
FTUS41 KCLE 031936 AAB
TAFCAK
TAF AMD
KCAK 031936Z 0320/0418 33005KT P6SM VCTS SCT050CB
      TEMPO 0320/0321 VRB20G40KT 2SM +TSRA BKN040CB
     FM040200 VRB03KT P6SM BKN100
     FM040800 VRB03KT 4SM BR BKN100
     FM041500 18005KT P6SM SCT060=



000
FTUS41 KCLE 031828 AAA
TAFYNG
TAF AMD
KYNG 031828Z 0318/0418 32005KT P6SM VCTS SCT040CB
      TEMPO 0319/0320 5SM -TSRA BKN040CB
     FM040200 VRB03KT P6SM BKN100
     FM040800 VRB03KT 4SM BR BKN100
      TEMPO 0409/0412 2SM BR
     FM041500 18005KT P6SM SCT060=



000
FTUS41 KCLE 031814 AAA
TAFCAK
TAF AMD
KCAK 031814Z 0318/0418 33005KT P6SM VCTS SCT050CB
      TEMPO 0318/0319 4SM -TSRA BKN040CB
     FM040200 VRB03KT P6SM BKN100
     FM040800 VRB03KT 4SM BR BKN100
     FM041500 18005KT P6SM SCT060=



000
FTUS41 KCLE 031814 AAA
TAFCAK
TAF AMD
KCAK 031814Z 0318/0418 33005KT P6SM VCTS SCT050CB
      TEMPO 0318/0319 4SM -TSRA BKN040CB
     FM040200 VRB03KT P6SM BKN100
     FM040800 VRB03KT 4SM BR BKN100
     FM041500 18005KT P6SM SCT060=



000
FTUS41 KCLE 031736
TAFFDY
TAF
KFDY 031736Z 0318/0418 25010KT P6SM SCT050
     FM032000 26006KT P6SM VCTS BKN050CB
     FM040200 VRB03KT P6SM SCT100
     FM040800 VRB03KT 4SM BR SCT100
     FM041500 21005KT P6SM SCT045=



000
FTUS41 KCLE 031736
TAFMFD
TAF
KMFD 031736Z 0318/0418 27007KT P6SM VCTS SCT050CB
     FM040000 VRB03KT P6SM BKN120
      TEMPO 0410/0412 4SM BR
     FM041500 18005KT P6SM SCT050=



000
FTUS41 KCLE 031736
TAFTOL
TAF
KTOL 031736Z 0318/0418 25010KT P6SM VCTS SCT050CB
      TEMPO 0320/0322 VRB15G25KT 2SM TSRA BKN050CB
     FM040000 27005KT P6SM VCSH BKN040
     FM040400 VRB03KT P6SM SCT100
     FM040800 VRB03KT 4SM BR SCT100
      TEMPO 0409/0412 2SM BR
     FM041500 21005KT P6SM SCT045=



000
FTUS41 KCLE 031736
TAFCLE
TAF
KCLE 031736Z 0318/0424 33007KT P6SM SCT050
     FM032100 33007KT P6SM VCTS SCT050CB
     FM040000 VRB03KT P6SM VCSH SCT050
     FM040200 VRB03KT P6SM BKN120
      TEMPO 0410/0412 4SM BR
     FM041500 18005KT P6SM SCT060
     FM041800 01008KT P6SM SCT060=



000
FTUS41 KCLE 031736
TAFCAK
TAF
KCAK 031736Z 0318/0418 33005KT P6SM SCT050
     FM032000 VRB04KT P6SM VCTS SCT050CB
     FM040200 VRB03KT P6SM BKN100
     FM040800 VRB03KT 4SM BR BKN100
     FM041500 18005KT P6SM SCT060=



000
FTUS41 KCLE 031736
TAFERI
TAF
KERI 031736Z 0318/0418 32007KT P6SM SCT060
     FM040000 18003KT P6SM SCT200
      TEMPO 0410/0412 4SM BR
     FM041400 14005KT P6SM SCT060=



000
FTUS41 KCLE 031736
TAFYNG
TAF
KYNG 031736Z 0318/0418 32005KT P6SM SCT050
     FM032000 VRB04KT P6SM VCTS SCT050CB
     FM040200 VRB03KT P6SM BKN100
     FM040800 VRB03KT 4SM BR BKN100
      TEMPO 0409/0412 2SM BR
     FM041500 18005KT P6SM SCT060=



000
FTUS41 KCLE 031508 AAB
TAFCLE
TAF AMD
KCLE 031508Z 0315/0418 23004KT P6SM SCT250
     FM031800 33007KT P6SM SCT060
     FM032100 VRB04KT P6SM VCTS SCT060CB
     FM040400 VRB04KT P6SM SCT060
     FM041500 34005KT P6SM SCT060=



000
FTUS41 KCLE 031508 AAB
TAFCLE
TAF AMD
KCLE 031508Z 0315/0418 23004KT P6SM SCT250
     FM031800 33007KT P6SM SCT060
     FM032100 VRB04KT P6SM VCTS SCT060CB
     FM040400 VRB04KT P6SM SCT060
     FM041500 34005KT P6SM SCT060=



000
FTUS41 KCLE 031316 AAA
TAFCAK
TAF AMD
KCAK 031316Z 0313/0412 VRB04KT P6SM SCT120 BKN250
     FM031700 32005KT P6SM SCT050 BKN100
     FM040300 VRB04KT P6SM VCSH SCT060 BKN120
     FM041000 VRB03KT P6SM BKN100=



000
FTUS41 KCLE 031201 AAA
TAFERI
TAF AMD
KERI 031201Z 0312/0412 18005KT P6SM BKN250
      TEMPO 0312/0313 6SM BR BKN007
     FM031700 32007KT P6SM SCT060 BKN200
     FM040000 18003KT P6SM SCT200=



000
FTUS41 KCLE 031201 AAA
TAFERI
TAF AMD
KERI 031201Z 0312/0412 18005KT P6SM BKN250
      TEMPO 0312/0313 6SM BR BKN007
     FM031700 32007KT P6SM SCT060 BKN200
     FM040000 18003KT P6SM SCT200=



000
FTUS41 KCLE 031140
TAFCAK
TAF
KCAK 031140Z 0312/0412 VRB04KT 5SM BR SCT120 BKN250
     FM031700 32005KT P6SM SCT050 BKN100
     FM040300 VRB04KT P6SM VCSH SCT060 BKN120
     FM041000 VRB03KT P6SM BKN100=



000
FTUS41 KCLE 031140
TAFFDY
TAF
KFDY 031140Z 0312/0412 23005KT P6SM VCSH SCT050 BKN200
      TEMPO 0312/0313 5SM -SHRA BR BKN040 OVC120
     FM031500 30005KT P6SM SCT050 BKN200
     FM032100 30005KT P6SM VCTS BKN050CB OVC150
     FM040000 VRB04KT P6SM VCSH BKN040 OVC100
     FM040800 VRB03KT 3SM BR SCT250=



000
FTUS41 KCLE 031140
TAFERI
TAF
KERI 031140Z 0312/0412 18005KT 6SM BR BKN250
     FM031700 32007KT P6SM SCT060 BKN200
     FM040000 18003KT P6SM SCT200=



000
FTUS41 KCLE 031140
TAFTOL
TAF
KTOL 031140Z 0312/0412 26005KT P6SM SCT050 BKN200
      TEMPO 0313/0314 5SM -TSRA BKN035CB OVC120
     FM031500 30005KT P6SM SCT050 BKN200
     FM032000 32006KT P6SM VCTS BKN050CB OVC200
     FM032300 VRB05KT P6SM VCSH BKN040 OVC100
     FM040800 VRB03KT 3SM BR SCT250=



000
FTUS41 KCLE 031140
TAFCAK
TAF
KCAK 031140Z 0312/0412 VRB04KT 5SM BR SCT120 BKN250
     FM031700 32005KT P6SM SCT050 BKN100
     FM040300 VRB04KT P6SM VCSH SCT060 BKN120
     FM041000 VRB03KT P6SM BKN100=



000
FTUS41 KCLE 031140
TAFYNG
TAF
KYNG 031140Z 0312/0412 25003KT 2SM BR VCTS BKN028CB OVC080
     FM031300 26004KT 5SM BR SCT050 BKN200
     FM031400 32006KT P6SM SCT050 BKN200
     FM040300 VRB04KT P6SM VCSH SCT060 BKN120
     FM041000 VRB03KT P6SM BKN100=



000
FTUS41 KCLE 031140
TAFFDY
TAF
KFDY 031140Z 0312/0412 23005KT P6SM VCSH SCT050 BKN200
      TEMPO 0312/0313 5SM -SHRA BR BKN040 OVC120
     FM031500 30005KT P6SM SCT050 BKN200
     FM032100 30005KT P6SM VCTS BKN050CB OVC150
     FM040000 VRB04KT P6SM VCSH BKN040 OVC100
     FM040800 VRB03KT 3SM BR SCT250=



000
FTUS41 KCLE 031140
TAFCLE
TAF
KCLE 031140Z 0312/0418 22004KT P6SM SCT150 BKN250
     FM031600 34006KT P6SM SCT060 SCT200
     FM040200 VRB04KT P6SM VCSH SCT060 BKN120
     FM041500 34005KT P6SM BKN080=



000
FTUS41 KCLE 031140
TAFMFD
TAF
KMFD 031140Z 0312/0412 24004KT P6SM SCT040 BKN200
     FM031600 31006KT P6SM SCT040 BKN180
     FM032300 35004KT P6SM VCTS BKN040CB OVC120
     FM040300 35004KT P6SM VCSH BKN040 OVC120
     FM040900 VRB03KT 4SM BR SCT200=



000
FTUS41 KCLE 031140
TAFTOL
TAF
KTOL 031140Z 0312/0412 26005KT P6SM SCT050 BKN200
      TEMPO 0313/0314 5SM -TSRA BKN035CB OVC120
     FM031500 30005KT P6SM SCT050 BKN200
     FM032000 32006KT P6SM VCTS BKN050CB OVC200
     FM032300 VRB05KT P6SM VCSH BKN040 OVC100
     FM040800 VRB03KT 3SM BR SCT250=



000
FTUS41 KCLE 031140
TAFERI
TAF
KERI 031140Z 0312/0412 18005KT 6SM BR BKN250
     FM031700 32007KT P6SM SCT060 BKN200
     FM040000 18003KT P6SM SCT200=



000
FTUS41 KCLE 031140
TAFMFD
TAF
KMFD 031140Z 0312/0412 24004KT P6SM SCT040 BKN200
     FM031600 31006KT P6SM SCT040 BKN180
     FM032300 35004KT P6SM VCTS BKN040CB OVC120
     FM040300 35004KT P6SM VCSH BKN040 OVC120
     FM040900 VRB03KT 4SM BR SCT200=



000
FTUS41 KCLE 031140
TAFYNG
TAF
KYNG 031140Z 0312/0412 25003KT 2SM BR VCTS BKN028CB OVC080
     FM031300 26004KT 5SM BR SCT050 BKN200
     FM031400 32006KT P6SM SCT050 BKN200
     FM040300 VRB04KT P6SM VCSH SCT060 BKN120
     FM041000 VRB03KT P6SM BKN100=



000
FTUS41 KCLE 031140
TAFCLE
TAF
KCLE 031140Z 0312/0418 22004KT P6SM SCT150 BKN250
     FM031600 34006KT P6SM SCT060 SCT200
     FM040200 VRB04KT P6SM VCSH SCT060 BKN120
     FM041500 34005KT P6SM BKN080=



000
FTUS41 KCLE 031054 AAA
TAFYNG
TAF AMD
KYNG 031054Z 0311/0406 25003KT 3SM BR VCTS BKN040CB BKN250
      TEMPO 0311/0313 VRB05KT 6SM BR SCT040 BKN200
     FM031300 26004KT P6SM SCT050 BKN200
     FM031500 32006KT P6SM SCT050 BKN200=



000
FTUS41 KCLE 031054 AAA
TAFYNG
TAF AMD
KYNG 031054Z 0311/0406 25003KT 3SM BR VCTS BKN040CB BKN250
      TEMPO 0311/0313 VRB05KT 6SM BR SCT040 BKN200
     FM031300 26004KT P6SM SCT050 BKN200
     FM031500 32006KT P6SM SCT050 BKN200=



000
FTUS41 KCLE 030603 AAA
TAFCAK
TAF AMD
KCAK 030603Z 0306/0406 25004KT 5SM BR FEW050 SCT250
      TEMPO 0310/0313 2SM BR
     FM031500 31005KT P6SM SCT050 BKN200=



000
FTUS41 KCLE 030603 AAA
TAFCAK
TAF AMD
KCAK 030603Z 0306/0406 25004KT 5SM BR FEW050 SCT250
      TEMPO 0310/0313 2SM BR
     FM031500 31005KT P6SM SCT050 BKN200=



000
FTUS41 KCLE 030539
TAFMFD
TAF
KMFD 030539Z 0306/0406 24004KT P6SM SCT200
      TEMPO 0310/0313 5SM BR SKC
     FM031500 31008KT P6SM SCT050 BKN180=



000
FTUS41 KCLE 030539
TAFCLE
TAF
KCLE 030539Z 0306/0412 22004KT P6SM VCSH BKN050 BKN250
     FM030700 23004KT P6SM SCT050 BKN200
     FM031700 35008KT P6SM SCT060 SCT200
     FM040200 24003KT P6SM SCT200=



000
FTUS41 KCLE 030539
TAFYNG
TAF
KYNG 030539Z 0306/0406 22003KT P6SM SCT050 BKN250
     FM030900 VRB03KT 4SM BR SCT250
     FM031500 32005KT P6SM SCT050 BKN200=



000
FTUS41 KCLE 030539
TAFCAK
TAF
KCAK 030539Z 0306/0406 27005KT 6SM HZ SCT060
     FM030800 VRB03KT 5SM BR SCT200
      TEMPO 0310/0313 2SM BR
     FM031500 31005KT P6SM SCT050 BKN200=



000
FTUS41 KCLE 030539
TAFERI
TAF
KERI 030539Z 0306/0406 18005KT P6SM SCT250
      TEMPO 0310/0312 5SM BR
     FM031700 32007KT P6SM SCT060 BKN200
     FM040000 18003KT P6SM SCT200=



000
FTUS41 KCLE 030539
TAFFDY
TAF
KFDY 030539Z 0306/0406 23005KT P6SM BKN200
      TEMPO 0310/0313 5SM BR SCT250
     FM031500 30005KT P6SM SCT050 BKN200
     FM032100 VRB05KT P6SM VCTS BKN050CB OVC150
     FM040000 10003KT P6SM SCT050 BKN200=



000
FTUS41 KCLE 030539
TAFTOL
TAF
KTOL 030539Z 0306/0406 23005KT P6SM BKN200
      TEMPO 0310/0313 5SM BR SCT250
     FM031500 30005KT P6SM SCT050 BKN200
     FM032000 30006KT P6SM VCTS BKN050CB OVC200
     FM032300 VRB05KT P6SM SCT050 BKN150=



000
FTUS41 KCLE 030103 AAA
TAFCLE
TAF AMD
KCLE 030103Z 0301/0406 22006KT P6SM SCT050 BKN150
     FM030200 23006KT P6SM VCSH SCT050 BKN120
     FM030600 23006KT P6SM SCT050 BKN200
     FM031900 35008KT P6SM SCT060 SCT150=



000
FTUS41 KCLE 030103 AAA
TAFCLE
TAF AMD
KCLE 030103Z 0301/0406 22006KT P6SM SCT050 BKN150
     FM030200 23006KT P6SM VCSH SCT050 BKN120
     FM030600 23006KT P6SM SCT050 BKN200
     FM031900 35008KT P6SM SCT060 SCT150=



000
FTUS41 KCLE 022339
TAFFDY
TAF
KFDY 022339Z 0300/0324 20005KT P6SM SCT040
     FM031000 27003KT 4SM BR SCT250
     FM031500 35005KT P6SM SCT050 BKN200
     FM031900 26008KT P6SM VCTS BKN050CB=



000
FTUS41 KCLE 022339
TAFMFD
TAF
KMFD 022339Z 0300/0324 25005KT P6SM VCSH SCT050 BKN150
     FM030200 24005KT P6SM SCT200
     FM031000 24004KT 5SM BR SCT200
     FM031500 30008KT P6SM SCT050 BKN100=



000
FTUS41 KCLE 022339
TAFTOL
TAF
KTOL 022339Z 0300/0324 23005KT P6SM SCT250
     FM030900 27003KT 4SM BR SCT250
     FM031500 35005KT P6SM SCT050 BKN200
     FM031900 26008KT P6SM VCTS BKN050CB=



000
FTUS41 KCLE 022339
TAFCAK
TAF
KCAK 022339Z 0300/0324 26008KT P6SM SCT050
     FM030200 25005KT P6SM VCSH SCT050 BKN100
     FM030500 25005KT P6SM SCT100
     FM030900 25004KT 5SM BR SCT200
     FM031500 28005KT P6SM SCT060 BKN150=



000
FTUS41 KCLE 022339
TAFCLE
TAF
KCLE 022339Z 0300/0406 26008KT P6SM SCT050 BKN200
     FM030100 25005KT P6SM VCTS SCT050CB BKN120
      TEMPO 0301/0303 VRB15G25KT 3SM -TSRA OVC030CB
     FM030300 25006KT P6SM SCT050 BKN200
     FM031900 35008KT P6SM SCT060 SCT150=



000
FTUS41 KCLE 022339
TAFYNG
TAF
KYNG 022339Z 0300/0324 24005KT P6SM SCT050
     FM030900 25004KT 5SM BR SCT200
     FM031500 28005KT P6SM SCT060 BKN150=



000
FTUS41 KCLE 022339
TAFCAK
TAF
KCAK 022339Z 0300/0324 26008KT P6SM SCT050
     FM030200 25005KT P6SM VCSH SCT050 BKN100
     FM030500 25005KT P6SM SCT100
     FM030900 25004KT 5SM BR SCT200
     FM031500 28005KT P6SM SCT060 BKN150=



000
FTUS41 KCLE 022339
TAFERI
TAF
KERI 022339Z 0300/0324 24005KT P6SM SCT200
     FM031700 34007KT P6SM SCT060 BKN150=



000
FTUS41 KCLE 022339
TAFFDY
TAF
KFDY 022339Z 0300/0324 20005KT P6SM SCT040
     FM031000 27003KT 4SM BR SCT250
     FM031500 35005KT P6SM SCT050 BKN200
     FM031900 26008KT P6SM VCTS BKN050CB=



000
FTUS41 KCLE 022339
TAFCLE
TAF
KCLE 022339Z 0300/0406 26008KT P6SM SCT050 BKN200
     FM030100 25005KT P6SM VCTS SCT050CB BKN120
      TEMPO 0301/0303 VRB15G25KT 3SM -TSRA OVC030CB
     FM030300 25006KT P6SM SCT050 BKN200
     FM031900 35008KT P6SM SCT060 SCT150=



000
FTUS41 KCLE 022339
TAFERI
TAF
KERI 022339Z 0300/0324 24005KT P6SM SCT200
     FM031700 34007KT P6SM SCT060 BKN150=



000
FTUS41 KCLE 022339
TAFTOL
TAF
KTOL 022339Z 0300/0324 23005KT P6SM SCT250
     FM030900 27003KT 4SM BR SCT250
     FM031500 35005KT P6SM SCT050 BKN200
     FM031900 26008KT P6SM VCTS BKN050CB=



000
FTUS41 KCLE 022339
TAFMFD
TAF
KMFD 022339Z 0300/0324 25005KT P6SM VCSH SCT050 BKN150
     FM030200 24005KT P6SM SCT200
     FM031000 24004KT 5SM BR SCT200
     FM031500 30008KT P6SM SCT050 BKN100=



000
FTUS41 KCLE 022339
TAFYNG
TAF
KYNG 022339Z 0300/0324 24005KT P6SM SCT050
     FM030900 25004KT 5SM BR SCT200
     FM031500 28005KT P6SM SCT060 BKN150=



000
FTUS41 KCLE 022107 AAA
TAFYNG
TAF AMD
KYNG 022107Z 0221/0318 35008KT P6SM VCTS SCT040CB
     FM022300 24005KT P6SM SCT050
      TEMPO 0311/0314 5SM BR
     FM031400 30005KT P6SM SCT060 BKN150=



000
FTUS41 KCLE 022106 AAB
TAFCAK
TAF AMD
KCAK 022106Z 0221/0318 27008KT P6SM VCTS SCT050CB BKN100
      TEMPO 0221/0222 VRB15G25KT 4SM TSRA BKN050CB
     FM022300 26008KT P6SM SCT050
      TEMPO 0311/0313 5SM BR
     FM031300 30005KT P6SM SCT060 BKN150=



000
FTUS41 KCLE 022041 AAA
TAFFDY
TAF AMD
KFDY 022041Z 0221/0318 24008KT P6SM VCTS SCT040CB
     FM022300 26005KT P6SM SCT040
      TEMPO 0311/0313 5SM BR
     FM031600 33005KT P6SM VCSH BKN050 OVC150=



000
FTUS41 KCLE 021913 AAA
TAFTOL
TAF AMD
KTOL 021913Z 0219/0318 25008KT P6SM SCT050
      TEMPO 0219/0221 VRB25G35KT 3SM TSRA BKN035CB OVC050
     FM030000 27005KT P6SM SCT250
      TEMPO 0311/0313 5SM BR
     FM031500 35005KT P6SM VCSH BKN050 OVC150=



000
FTUS41 KCLE 021826 AAA
TAFCAK
TAF AMD
KCAK 021826Z 0218/0318 27008KT P6SM VCTS SCT050CB
      TEMPO 0218/0220 VRB15G25KT 4SM TSRA BKN050CB
     FM022100 27008KT P6SM SCT050
     FM030200 24005KT P6SM SCT250
      TEMPO 0311/0313 5SM BR
     FM031300 30005KT P6SM SCT060 BKN150=



000
FTUS41 KCLE 021826 AAA
TAFCAK
TAF AMD
KCAK 021826Z 0218/0318 27008KT P6SM VCTS SCT050CB
      TEMPO 0218/0220 VRB15G25KT 4SM TSRA BKN050CB
     FM022100 27008KT P6SM SCT050
     FM030200 24005KT P6SM SCT250
      TEMPO 0311/0313 5SM BR
     FM031300 30005KT P6SM SCT060 BKN150=



000
FTUS41 KCLE 021823 AAA
TAFMFD
TAF AMD
KMFD 021823Z 0218/0318 24008KT P6SM VCTS SCT050CB BKN100
      TEMPO 0218/0219 VRB15G25KT 4SM TSRA BKN050CB
     FM022100 24005KT P6SM SCT050
     FM030400 24005KT P6SM SCT250
      TEMPO 0311/0313 5SM BR
     FM031400 32008KT P6SM SCT060 BKN150=



000
FTUS41 KCLE 021823 AAA
TAFMFD
TAF AMD
KMFD 021823Z 0218/0318 24008KT P6SM VCTS SCT050CB BKN100
      TEMPO 0218/0219 VRB15G25KT 4SM TSRA BKN050CB
     FM022100 24005KT P6SM SCT050
     FM030400 24005KT P6SM SCT250
      TEMPO 0311/0313 5SM BR
     FM031400 32008KT P6SM SCT060 BKN150=



000
FTUS41 KCLE 021729
TAFCLE
TAF
KCLE 021729Z 0218/0324 25008KT P6SM VCSH SCT050
     FM022200 29008KT P6SM VCSH SCT050 BKN150
     FM030500 22005KT P6SM SCT250
     FM031200 27005KT P6SM BKN100
     FM031500 35008KT P6SM VCSH BKN060 OVC100
     FM031900 35008KT P6SM SCT060 SCT150=



000
FTUS41 KCLE 021729
TAFFDY
TAF
KFDY 021729Z 0218/0318 25008KT P6SM SCT050
     FM030000 26005KT P6SM SCT250
      TEMPO 0311/0313 5SM BR
     FM031600 33005KT P6SM VCSH BKN050 OVC150=



000
FTUS41 KCLE 021729
TAFCAK
TAF
KCAK 021729Z 0218/0318 27008KT P6SM SCT050
     FM030200 24005KT P6SM SCT250
      TEMPO 0311/0313 5SM BR
     FM031300 30005KT P6SM SCT060 BKN150=



000
FTUS41 KCLE 021729
TAFERI
TAF
KERI 021729Z 0218/0318 27008KT P6SM FEW050
     FM030000 19005KT P6SM FEW250
     FM031200 30005KT P6SM VCSH BKN060 OVC100=



000
FTUS41 KCLE 021729
TAFTOL
TAF
KTOL 021729Z 0218/0318 25008KT P6SM SCT050
     FM030000 27005KT P6SM SCT250
      TEMPO 0311/0313 5SM BR
     FM031500 35005KT P6SM VCSH BKN050 OVC150=



000
FTUS41 KCLE 021729
TAFYNG
TAF
KYNG 021729Z 0218/0318 25008KT P6SM SCT040
     FM030200 24005KT P6SM SCT250
      TEMPO 0311/0314 5SM BR
     FM031400 30005KT P6SM SCT060 BKN150=



000
FTUS41 KCLE 021729
TAFFDY
TAF
KFDY 021729Z 0218/0318 25008KT P6SM SCT050
     FM030000 26005KT P6SM SCT250
      TEMPO 0311/0313 5SM BR
     FM031600 33005KT P6SM VCSH BKN050 OVC150=



000
FTUS41 KCLE 021729
TAFMFD
TAF
KMFD 021729Z 0218/0318 24008KT P6SM VCTS SCT050CB BKN100
     FM030400 24005KT P6SM SCT250
      TEMPO 0311/0313 5SM BR
     FM031400 32008KT P6SM SCT060 BKN150=



000
FTUS41 KCLE 021729
TAFCLE
TAF
KCLE 021729Z 0218/0324 25008KT P6SM VCSH SCT050
     FM022200 29008KT P6SM VCSH SCT050 BKN150
     FM030500 22005KT P6SM SCT250
     FM031200 27005KT P6SM BKN100
     FM031500 35008KT P6SM VCSH BKN060 OVC100
     FM031900 35008KT P6SM SCT060 SCT150=



000
FTUS41 KCLE 021729
TAFTOL
TAF
KTOL 021729Z 0218/0318 25008KT P6SM SCT050
     FM030000 27005KT P6SM SCT250
      TEMPO 0311/0313 5SM BR
     FM031500 35005KT P6SM VCSH BKN050 OVC150=



000
FTUS41 KCLE 021729
TAFMFD
TAF
KMFD 021729Z 0218/0318 24008KT P6SM VCTS SCT050CB BKN100
     FM030400 24005KT P6SM SCT250
      TEMPO 0311/0313 5SM BR
     FM031400 32008KT P6SM SCT060 BKN150=



000
FTUS41 KCLE 021729
TAFERI
TAF
KERI 021729Z 0218/0318 27008KT P6SM FEW050
     FM030000 19005KT P6SM FEW250
     FM031200 30005KT P6SM VCSH BKN060 OVC100=



000
FTUS41 KCLE 021729
TAFCAK
TAF
KCAK 021729Z 0218/0318 27008KT P6SM SCT050
     FM030200 24005KT P6SM SCT250
      TEMPO 0311/0313 5SM BR
     FM031300 30005KT P6SM SCT060 BKN150=



000
FTUS41 KCLE 021729
TAFYNG
TAF
KYNG 021729Z 0218/0318 25008KT P6SM SCT040
     FM030200 24005KT P6SM SCT250
      TEMPO 0311/0314 5SM BR
     FM031400 30005KT P6SM SCT060 BKN150=



000
FTUS41 KCLE 021355 AAA
TAFTOL
TAF AMD
KTOL 021355Z 0214/0312 23006KT P6SM VCTS SCT050CB BKN070
     FM021600 25008KT P6SM SCT050=



000
FTUS41 KCLE 021230 AAA
TAFYNG
TAF AMD
KYNG 021230Z 0213/0312 22004KT 3SM BR BKN150
      TEMPO 0214/0215 6SM BR
     FM021500 27008KT P6SM SCT050=



000
FTUS41 KCLE 021230 AAA
TAFCAK
TAF AMD
KCAK 021230Z 0213/0312 22004KT P6SM BKN150
     FM021500 27008KT P6SM SCT050=



000
FTUS41 KCLE 021230 AAA
TAFYNG
TAF AMD
KYNG 021230Z 0213/0312 22004KT 3SM BR BKN150
      TEMPO 0214/0215 6SM BR
     FM021500 27008KT P6SM SCT050=



000
FTUS41 KCLE 021230 AAA
TAFCAK
TAF AMD
KCAK 021230Z 0213/0312 22004KT P6SM BKN150
     FM021500 27008KT P6SM SCT050=



000
FTUS41 KCLE 021132
TAFCAK
TAF
KCAK 021132Z 0212/0312 22004KT P6SM BKN150
      TEMPO 0212/0213 5SM BR
     FM021500 27008KT P6SM SCT050=



000
FTUS41 KCLE 021132
TAFMFD
TAF
KMFD 021132Z 0212/0312 22004KT P6SM SKC
     FM021400 24006KT P6SM VCSH BKN070
     FM021600 27008KT P6SM SCT040=



000
FTUS41 KCLE 021132
TAFFDY
TAF
KFDY 021132Z 0212/0312 20004KT P6SM FEW070
      TEMPO 0212/0213 5SM BR
     FM021300 23006KT P6SM VCSH BKN070
     FM021600 25008KT P6SM SCT050=



000
FTUS41 KCLE 021132
TAFCLE
TAF
KCLE 021132Z 0212/0318 20005KT P6SM SCT250
     FM021800 32008KT P6SM SCT050=



000
FTUS41 KCLE 021132
TAFTOL
TAF
KTOL 021132Z 0212/0312 20004KT P6SM SKC
      TEMPO 0212/0213 5SM BR
     FM021400 23006KT P6SM VCSH BKN070
     FM021600 25008KT P6SM SCT050=



000
FTUS41 KCLE 021132
TAFYNG
TAF
KYNG 021132Z 0212/0312 22004KT P6SM BKN150
      TEMPO 0212/0213 5SM BR
     FM021500 27008KT P6SM SCT050=



000
FTUS41 KCLE 021132
TAFERI
TAF
KERI 021132Z 0212/0312 20005KT P6SM SCT100
     FM021600 28008KT P6SM SCT050=



000
FTUS41 KCLE 021132
TAFMFD
TAF
KMFD 021132Z 0212/0312 22004KT P6SM SKC
     FM021400 24006KT P6SM VCSH BKN070
     FM021600 27008KT P6SM SCT040=



000
FTUS41 KCLE 021132
TAFFDY
TAF
KFDY 021132Z 0212/0312 20004KT P6SM FEW070
      TEMPO 0212/0213 5SM BR
     FM021300 23006KT P6SM VCSH BKN070
     FM021600 25008KT P6SM SCT050=



000
FTUS41 KCLE 021132
TAFYNG
TAF
KYNG 021132Z 0212/0312 22004KT P6SM BKN150
      TEMPO 0212/0213 5SM BR
     FM021500 27008KT P6SM SCT050=



000
FTUS41 KCLE 021132
TAFTOL
TAF
KTOL 021132Z 0212/0312 20004KT P6SM SKC
      TEMPO 0212/0213 5SM BR
     FM021400 23006KT P6SM VCSH BKN070
     FM021600 25008KT P6SM SCT050=



000
FTUS41 KCLE 021132
TAFCAK
TAF
KCAK 021132Z 0212/0312 22004KT P6SM BKN150
      TEMPO 0212/0213 5SM BR
     FM021500 27008KT P6SM SCT050=



000
FTUS41 KCLE 021132
TAFERI
TAF
KERI 021132Z 0212/0312 20005KT P6SM SCT100
     FM021600 28008KT P6SM SCT050=



000
FTUS41 KCLE 021132
TAFCLE
TAF
KCLE 021132Z 0212/0318 20005KT P6SM SCT250
     FM021800 32008KT P6SM SCT050=



000
FTUS41 KCLE 021043 AAA
TAFFDY
TAF AMD
KFDY 021043Z 0211/0306 20004KT P6SM FEW070
      TEMPO 0211/0213 5SM BR
     FM021300 23006KT P6SM VCSH BKN070
     FM021600 25008KT P6SM SCT050=



000
FTUS41 KCLE 021042 AAA
TAFTOL
TAF AMD
KTOL 021042Z 0211/0306 20004KT P6SM SKC
      TEMPO 0211/0213 5SM BR
     FM021400 23006KT P6SM VCSH BKN070
     FM021600 25008KT P6SM SCT050=



000
FTUS41 KCLE 021042 AAA
TAFTOL
TAF AMD
KTOL 021042Z 0211/0306 20004KT P6SM SKC
      TEMPO 0211/0213 5SM BR
     FM021400 23006KT P6SM VCSH BKN070
     FM021600 25008KT P6SM SCT050=



000
FTUS41 KCLE 020856 AAA
TAFCLE
TAF AMD
KCLE 020856Z 0209/0312 20005KT P6SM SCT250
      TEMPO 0210/0213 4SM BR
     FM021800 32008KT P6SM SCT050=



000
FTUS41 KCLE 020532
TAFYNG
TAF
KYNG 020532Z 0206/0306 VRB03KT P6SM BKN200
     FM020900 20003KT 4SM BR SKC
     FM021400 25006KT P6SM SCT045=



000
FTUS41 KCLE 020532
TAFCAK
TAF
KCAK 020532Z 0206/0306 VRB03KT P6SM BKN150
     FM020900 22003KT 4SM BR SKC
     FM021500 27008KT P6SM SCT050=



000
FTUS41 KCLE 020532
TAFERI
TAF
KERI 020532Z 0206/0306 19005KT P6SM SCT100
     FM021600 28008KT P6SM SCT050=



000
FTUS41 KCLE 020532
TAFTOL
TAF
KTOL 020532Z 0206/0306 20004KT P6SM SKC
     FM020900 VRB03KT 4SM BR SKC
      TEMPO 0210/0212 2SM BR
     FM021400 25008KT P6SM SCT040=



000
FTUS41 KCLE 020532
TAFCLE
TAF
KCLE 020532Z 0206/0312 20004KT P6SM SCT150
      TEMPO 0210/0213 4SM BR
     FM021800 32008KT P6SM SCT050=



000
FTUS41 KCLE 020532
TAFMFD
TAF
KMFD 020532Z 0206/0306 20003KT P6SM BKN150
     FM021000 22003KT 4SM BR SKC
     FM021400 26007KT P6SM SCT045=



000
FTUS41 KCLE 020532
TAFFDY
TAF
KFDY 020532Z 0206/0306 20004KT P6SM SKC
     FM020900 VRB03KT 4SM BR SKC
      TEMPO 0210/0212 2SM BR
     FM021400 25008KT P6SM SCT040=



000
FTUS41 KCLE 020532
TAFYNG
TAF
KYNG 020532Z 0206/0306 VRB03KT P6SM BKN200
     FM020900 20003KT 4SM BR SKC
     FM021400 25006KT P6SM SCT045=



000
FTUS41 KCLE 020532
TAFERI
TAF
KERI 020532Z 0206/0306 19005KT P6SM SCT100
     FM021600 28008KT P6SM SCT050=



000
FTUS41 KCLE 020532
TAFMFD
TAF
KMFD 020532Z 0206/0306 20003KT P6SM BKN150
     FM021000 22003KT 4SM BR SKC
     FM021400 26007KT P6SM SCT045=



000
FTUS41 KCLE 020532
TAFCAK
TAF
KCAK 020532Z 0206/0306 VRB03KT P6SM BKN150
     FM020900 22003KT 4SM BR SKC
     FM021500 27008KT P6SM SCT050=



000
FTUS41 KCLE 020532
TAFFDY
TAF
KFDY 020532Z 0206/0306 20004KT P6SM SKC
     FM020900 VRB03KT 4SM BR SKC
      TEMPO 0210/0212 2SM BR
     FM021400 25008KT P6SM SCT040=



000
FTUS41 KCLE 020532
TAFCLE
TAF
KCLE 020532Z 0206/0312 20004KT P6SM SCT150
      TEMPO 0210/0213 4SM BR
     FM021800 32008KT P6SM SCT050=



000
FTUS41 KCLE 020532
TAFTOL
TAF
KTOL 020532Z 0206/0306 20004KT P6SM SKC
     FM020900 VRB03KT 4SM BR SKC
      TEMPO 0210/0212 2SM BR
     FM021400 25008KT P6SM SCT040=



000
FTUS41 KCLE 012333
TAFFDY
TAF
KFDY 012333Z 0200/0224 23006KT P6SM BKN200
     FM020800 21003KT 4SM BR SKC
      TEMPO 0211/0213 2SM BR
     FM021400 25008KT P6SM SCT040=



000
FTUS41 KCLE 012333
TAFCLE
TAF
KCLE 012333Z 0200/0306 20003KT P6SM VCSH SCT040 BKN100
     FM020200 20003KT P6SM SCT200
      TEMPO 0210/0213 4SM BR
     FM021400 24005KT P6SM SKC
     FM021800 32008KT P6SM SCT050=



000
FTUS41 KCLE 012333
TAFMFD
TAF
KMFD 012333Z 0200/0224 20003KT P6SM SCT050 BKN100
     FM021000 22003KT 3SM BR SKC
     FM021400 26007KT P6SM SCT045=



000
FTUS41 KCLE 012333
TAFTOL
TAF
KTOL 012333Z 0200/0224 20003KT P6SM SCT200
     FM020500 22003KT 4SM BR SKC
      TEMPO 0208/0212 2SM BR
     FM021400 25008KT P6SM SCT040=



000
FTUS41 KCLE 012333
TAFYNG
TAF
KYNG 012333Z 0200/0224 28003KT P6SM SCT050 BKN200
     FM020900 20003KT 4SM BR SKC
     FM021400 27007KT P6SM SCT045=



000
FTUS41 KCLE 012333
TAFCAK
TAF
KCAK 012333Z 0200/0224 28006KT P6SM SCT050 BKN200
     FM020900 22003KT 4SM BR SKC
     FM021500 27007KT P6SM SCT050=



000
FTUS41 KCLE 012333
TAFERI
TAF
KERI 012333Z 0200/0224 25005KT P6SM SCT100
     FM021600 28008KT P6SM SCT045=



000
FTUS41 KCLE 012143 AAC
TAFCLE
TAF AMD
KCLE 012143Z 0122/0224 35008KT P6SM VCTS SCT050CB
      TEMPO 0122/0124 5SM -TSRA BKN035CB
     FM020000 33005KT P6SM SCT050
      TEMPO 0210/0213 4SM BR
     FM021400 23005KT P6SM SKC
     FM021800 33008KT P6SM SCT050=



000
FTUS41 KCLE 012100 AAB
TAFCLE
TAF AMD
KCLE 012100Z 0121/0224 35008KT P6SM SCT050
     FM020200 21005KT P6SM SKC
      TEMPO 0210/0213 4SM BR
     FM021400 23005KT P6SM SKC
     FM021800 33008KT P6SM SCT050=



000
FTUS41 KCLE 011749 AAA
TAFCLE
TAF AMD
KCLE 011749Z 0118/0224 01008KT P6SM SCT050
     FM020200 21005KT P6SM SKC
      TEMPO 0210/0213 4SM BR
     FM021400 23005KT P6SM SKC
     FM021800 33008KT P6SM SCT050=



000
FTUS41 KCLE 011749 AAA
TAFCLE
TAF AMD
KCLE 011749Z 0118/0224 01008KT P6SM SCT050
     FM020200 21005KT P6SM SKC
      TEMPO 0210/0213 4SM BR
     FM021400 23005KT P6SM SKC
     FM021800 33008KT P6SM SCT050=



000
FTUS41 KCLE 011727
TAFERI
TAF
KERI 011727Z 0118/0218 30010KT P6SM FEW045
     FM020200 21005KT P6SM SKC
     FM021600 27008KT P6SM FEW045=



000
FTUS41 KCLE 011727
TAFCAK
TAF
KCAK 011727Z 0118/0218 23008KT P6SM SCT050
     FM020200 23003KT P6SM SKC
     FM020900 VRB03KT 4SM BR SKC
     FM021500 27007KT P6SM SCT050=



000
FTUS41 KCLE 011727
TAFMFD
TAF
KMFD 011727Z 0118/0218 26007KT P6SM BKN045
     FM020000 21003KT P6SM SKC
      TEMPO 0210/0213 4SM BR SKC
     FM021400 26007KT P6SM SCT045=



000
FTUS41 KCLE 011727
TAFFDY
TAF
KFDY 011727Z 0118/0218 24008KT P6SM BKN045
     FM020000 21003KT P6SM SKC
     FM020800 21003KT 4SM BR SKC
      TEMPO 0211/0213 2SM BR
     FM021400 25008KT P6SM SCT040=



000
FTUS41 KCLE 011727
TAFCLE
TAF
KCLE 011727Z 0118/0224 33007KT P6SM SCT050
     FM020200 21005KT P6SM SKC
      TEMPO 0210/0213 4SM BR
     FM021400 23005KT P6SM SKC
     FM021800 33008KT P6SM SCT050=



000
FTUS41 KCLE 011727
TAFTOL
TAF
KTOL 011727Z 0118/0218 23008KT P6SM BKN045
     FM020000 23003KT P6SM SKC
     FM020700 23003KT 4SM BR SKC
      TEMPO 0210/0213 2SM BR
     FM021500 25008KT P6SM SCT040=



000
FTUS41 KCLE 011727
TAFYNG
TAF
KYNG 011727Z 0118/0218 24007KT P6SM SCT050
     FM020200 VRB03KT P6SM SKC
     FM020900 VRB03KT 4SM BR SKC
     FM021400 27007KT P6SM SCT045=



000
FTUS41 KCLE 011727
TAFERI
TAF
KERI 011727Z 0118/0218 30010KT P6SM FEW045
     FM020200 21005KT P6SM SKC
     FM021600 27008KT P6SM FEW045=



000
FTUS41 KCLE 011727
TAFCAK
TAF
KCAK 011727Z 0118/0218 23008KT P6SM SCT050
     FM020200 23003KT P6SM SKC
     FM020900 VRB03KT 4SM BR SKC
     FM021500 27007KT P6SM SCT050=



000
FTUS41 KCLE 011727
TAFFDY
TAF
KFDY 011727Z 0118/0218 24008KT P6SM BKN045
     FM020000 21003KT P6SM SKC
     FM020800 21003KT 4SM BR SKC
      TEMPO 0211/0213 2SM BR
     FM021400 25008KT P6SM SCT040=



000
FTUS41 KCLE 011727
TAFTOL
TAF
KTOL 011727Z 0118/0218 23008KT P6SM BKN045
     FM020000 23003KT P6SM SKC
     FM020700 23003KT 4SM BR SKC
      TEMPO 0210/0213 2SM BR
     FM021500 25008KT P6SM SCT040=



000
FTUS41 KCLE 011727
TAFYNG
TAF
KYNG 011727Z 0118/0218 24007KT P6SM SCT050
     FM020200 VRB03KT P6SM SKC
     FM020900 VRB03KT 4SM BR SKC
     FM021400 27007KT P6SM SCT045=



000
FTUS41 KCLE 011727
TAFCLE
TAF
KCLE 011727Z 0118/0224 33007KT P6SM SCT050
     FM020200 21005KT P6SM SKC
      TEMPO 0210/0213 4SM BR
     FM021400 23005KT P6SM SKC
     FM021800 33008KT P6SM SCT050=



000
FTUS41 KCLE 011727
TAFMFD
TAF
KMFD 011727Z 0118/0218 26007KT P6SM BKN045
     FM020000 21003KT P6SM SKC
      TEMPO 0210/0213 4SM BR SKC
     FM021400 26007KT P6SM SCT045=



000
FTUS41 KCLE 011517 AAB
TAFCLE
TAF AMD
KCLE 011517Z 0115/0218 24006KT P6SM SCT040
     FM011700 30008KT P6SM SCT050
     FM020000 VRB03KT P6SM BKN250
     FM020600 VRB03KT 4SM BR BKN250
     FM021500 23006KT P6SM BKN250=



000
FTUS41 KCLE 011337 AAA
TAFCAK
TAF AMD
KCAK 011337Z 0114/0212 25004KT 4SM HZ SKC
     FM011500 26007KT P6SM SCT045
     FM011800 27005KT P6SM BKN045
     FM012200 VRB03KT P6SM BKN250
     FM020200 00000KT 4SM BR BKN250=



000
FTUS41 KCLE 011124
TAFFDY
TAF
KFDY 011124Z 0112/0212 VRB03KT 4SM BR SKC
     FM011300 24008KT P6SM SCT040
     FM012100 22004KT P6SM SCT040 BKN250
     FM020700 VRB03KT 4SM BR BKN250=



000
FTUS41 KCLE 011124
TAFCAK
TAF
KCAK 011124Z 0112/0212 00000KT 3SM BR SKC
     FM011300 26007KT P6SM SCT045
     FM011800 27005KT P6SM BKN045
     FM012200 VRB03KT P6SM BKN250
     FM020200 00000KT 4SM BR BKN250=



000
FTUS41 KCLE 011124
TAFCLE
TAF
KCLE 011124Z 0112/0218 21005KT P6SM SKC
     FM011300 24006KT P6SM SCT040
     FM011700 30008KT P6SM SCT050
     FM020000 VRB03KT P6SM BKN250
     FM020600 VRB03KT 4SM BR BKN250
     FM021500 23006KT P6SM BKN250=



000
FTUS41 KCLE 011124
TAFYNG
TAF
KYNG 011124Z 0112/0212 00000KT 4SM BR SKC
     FM011300 24005KT P6SM SCT040
     FM012000 28005KT P6SM SCT045 BKN250
     FM020000 VRB03KT P6SM BKN250
     FM020900 VRB03KT 4SM BR BKN250=



000
FTUS41 KCLE 011124
TAFTOL
TAF
KTOL 011124Z 0112/0212 00000KT 3SM BR SKC
      TEMPO 0112/0113 00000KT 1SM BR
     FM011500 24007KT P6SM SCT040
     FM011800 23007KT P6SM SCT040 BKN250
     FM020000 VRB03KT P6SM BKN250
     FM020800 VRB03KT 2SM BR BKN250=



000
FTUS41 KCLE 011124
TAFERI
TAF
KERI 011124Z 0112/0212 21004KT 6SM HZ SKC
     FM011600 30008KT P6SM FEW040
     FM012300 VRB03KT P6SM SKC
     FM020600 18005KT 4SM BR SCT250=



000
FTUS41 KCLE 011124
TAFMFD
TAF
KMFD 011124Z 0112/0212 00000KT P6SM SKC
     FM011300 25006KT P6SM SCT040
     FM012200 VRB04KT P6SM BKN250
     FM020700 VRB03KT 4SM BR BKN250=



000
FTUS41 KCLE 011124
TAFMFD
TAF
KMFD 011124Z 0112/0212 00000KT P6SM SKC
     FM011300 25006KT P6SM SCT040
     FM012200 VRB04KT P6SM BKN250
     FM020700 VRB03KT 4SM BR BKN250=



000
FTUS41 KCLE 011124
TAFYNG
TAF
KYNG 011124Z 0112/0212 00000KT 4SM BR SKC
     FM011300 24005KT P6SM SCT040
     FM012000 28005KT P6SM SCT045 BKN250
     FM020000 VRB03KT P6SM BKN250
     FM020900 VRB03KT 4SM BR BKN250=



000
FTUS41 KCLE 011124
TAFCAK
TAF
KCAK 011124Z 0112/0212 00000KT 3SM BR SKC
     FM011300 26007KT P6SM SCT045
     FM011800 27005KT P6SM BKN045
     FM012200 VRB03KT P6SM BKN250
     FM020200 00000KT 4SM BR BKN250=



000
FTUS41 KCLE 011124
TAFTOL
TAF
KTOL 011124Z 0112/0212 00000KT 3SM BR SKC
      TEMPO 0112/0113 00000KT 1SM BR
     FM011500 24007KT P6SM SCT040
     FM011800 23007KT P6SM SCT040 BKN250
     FM020000 VRB03KT P6SM BKN250
     FM020800 VRB03KT 2SM BR BKN250=



000
FTUS41 KCLE 011124
TAFFDY
TAF
KFDY 011124Z 0112/0212 VRB03KT 4SM BR SKC
     FM011300 24008KT P6SM SCT040
     FM012100 22004KT P6SM SCT040 BKN250
     FM020700 VRB03KT 4SM BR BKN250=



000
FTUS41 KCLE 011124
TAFCLE
TAF
KCLE 011124Z 0112/0218 21005KT P6SM SKC
     FM011300 24006KT P6SM SCT040
     FM011700 30008KT P6SM SCT050
     FM020000 VRB03KT P6SM BKN250
     FM020600 VRB03KT 4SM BR BKN250
     FM021500 23006KT P6SM BKN250=



000
FTUS41 KCLE 011124
TAFERI
TAF
KERI 011124Z 0112/0212 21004KT 6SM HZ SKC
     FM011600 30008KT P6SM FEW040
     FM012300 VRB03KT P6SM SKC
     FM020600 18005KT 4SM BR SCT250=



000
FTUS41 KCLE 011011 AAA
TAFYNG
TAF AMD
KYNG 011011Z 0110/0206 00000KT P6SM SKC
     FM011300 24005KT P6SM SCT040
     FM012000 28005KT P6SM SCT045 BKN250
     FM020000 VRB03KT 4SM BR BKN250=



000
FTUS41 KCLE 011010 AAA
TAFMFD
TAF AMD
KMFD 011010Z 0110/0206 00000KT P6SM SKC
     FM011300 25006KT P6SM SCT040
     FM012200 VRB04KT P6SM BKN250=



000
FTUS41 KCLE 011010 AAA
TAFMFD
TAF AMD
KMFD 011010Z 0110/0206 00000KT P6SM SKC
     FM011300 25006KT P6SM SCT040
     FM012200 VRB04KT P6SM BKN250=



000
FTUS41 KCLE 010908 AAA
TAFCLE
TAF AMD
KCLE 010908Z 0109/0212 20004KT P6SM SKC
     FM011300 24006KT P6SM SCT040
     FM011700 30008KT P6SM SCT050
     FM020000 VRB03KT P6SM BKN250
     FM020600 VRB03KT 4SM BR BKN250=



    US Dept of Commerce
    National Oceanic and Atmospheric Administration
    National Weather Service
    1325 East West Highway
    Silver Spring, MD 20910
    Page Author: NWS Internet Services Team
Disclaimer
Information Quality
Credits
Glossary
Privacy Policy
Freedom of Information Act (FOIA)
About Us
Career Opportunities